Time;durP1;ratioP1;P1;durP2;ratioP2;P2;SDS_P1;SDS_P2;PMS_P1;PMS_P2;Temp;Humidity;BMP_temperature;BMP_pressure;BME280_temperature;BME280_humidity;BME280_pressure;Samples;Min_cycle;Max_cycle;Signal;HPM_P1;HPM_P2
2023/10/05 00:00:58;;;;;;;14.38;7.32;;;;;;;10.69;68.52;97171.41;5094641;28;20040;-66
2023/10/05 00:03:26;;;;;;;20.15;8.00;;;;;;;10.69;68.78;97167.97;5094561;28;20048;-62
2023/10/05 00:05:56;;;;;;;14.77;7.70;;;;;;;10.68;68.71;97159.25;5094565;28;20084;-63
2023/10/05 00:08:23;;;;;;;13.80;7.90;;;;;;;10.64;68.65;97162.84;5094679;28;20047;-64
2023/10/05 00:10:51;;;;;;;16.02;7.55;;;;;;;10.61;68.70;97160.31;5094423;28;20134;-62
2023/10/05 00:13:18;;;;;;;14.70;7.22;;;;;;;10.56;69.09;97157.84;5094277;28;20451;-66
2023/10/05 00:15:46;;;;;;;16.95;7.47;;;;;;;10.52;68.94;97156.22;5094367;28;20052;-65
2023/10/05 00:18:18;;;;;;;13.45;7.10;;;;;;;10.49;69.27;97157.16;5094288;28;20048;-65
2023/10/05 00:20:48;;;;;;;13.35;7.53;;;;;;;10.47;69.08;97155.47;5094486;28;20044;-66
2023/10/05 00:23:15;;;;;;;18.65;7.65;;;;;;;10.49;69.38;97158.91;5094253;28;20117;-66
2023/10/05 00:25:42;;;;;;;14.20;7.60;;;;;;;10.47;69.54;97164.19;5094129;28;20481;-63
2023/10/05 00:28:10;;;;;;;15.32;7.35;;;;;;;10.45;69.57;97162.50;5094212;28;20094;-65
2023/10/05 00:30:39;;;;;;;16.42;7.30;;;;;;;10.43;69.62;97154.69;5094077;28;20161;-63
2023/10/05 00:33:10;;;;;;;13.63;6.70;;;;;;;10.44;69.48;97163.38;5094225;28;20094;-64
2023/10/05 00:35:38;;;;;;;12.90;7.40;;;;;;;10.44;69.58;97161.63;5094084;28;20051;-65
2023/10/05 00:38:13;;;;;;;14.23;7.35;;;;;;;10.34;69.70;97161.03;5093899;28;20478;-65
2023/10/05 00:40:43;;;;;;;13.32;6.82;;;;;;;10.31;69.79;97160.25;5093923;28;20113;-64
2023/10/05 00:43:23;;;;;;;16.73;8.00;;;;;;;10.30;70.19;97155.91;5093841;28;20051;-64
2023/10/05 00:45:50;;;;;;;13.15;6.68;;;;;;;10.32;69.85;97156.72;5093885;28;20055;-62
2023/10/05 00:48:29;;;;;;;11.02;7.00;;;;;;;10.30;70.09;97156.75;5093744;28;20047;-64
2023/10/05 00:50:59;;;;;;;11.57;7.15;;;;;;;10.27;69.97;97161.22;5093754;28;20059;-63
2023/10/05 00:53:29;;;;;;;15.10;7.00;;;;;;;10.24;70.17;97162.16;5093850;28;20048;-64
2023/10/05 00:56:07;;;;;;;14.60;7.47;;;;;;;10.25;70.41;97158.66;5093791;28;20492;-64
2023/10/05 00:58:42;;;;;;;13.60;7.32;;;;;;;10.20;70.43;97158.78;5093695;28;20281;-64
2023/10/05 01:01:15;;;;;;;12.90;6.97;;;;;;;10.16;70.63;97156.28;5093656;28;20044;-66
2023/10/05 01:03:59;;;;;;;11.23;6.32;;;;;;;10.14;70.84;97151.09;5092464;28;20063;-64
2023/10/05 01:06:32;;;;;;;14.20;7.40;;;;;;;10.09;70.62;97152.97;5093572;28;20496;-63
2023/10/05 01:09:04;;;;;;;12.57;6.75;;;;;;;10.07;70.88;97152.16;5093432;28;20135;-66
2023/10/05 01:11:42;;;;;;;14.85;6.75;;;;;;;10.01;70.88;97153.16;5093483;28;20131;-63
2023/10/05 01:14:09;;;;;;;21.70;7.88;;;;;;;10.02;71.30;97154.88;5093471;28;20401;-64
2023/10/05 01:16:37;;;;;;;13.63;7.25;;;;;;;9.97;70.99;97149.78;5093398;28;20044;-63
2023/10/05 01:19:07;;;;;;;14.93;7.47;;;;;;;9.93;71.41;97158.59;5093457;28;20087;-63
2023/10/05 01:21:36;;;;;;;12.48;7.35;;;;;;;9.88;71.52;97143.94;5093347;28;20051;-65
2023/10/05 01:24:05;;;;;;;13.55;7.22;;;;;;;9.84;71.85;97141.41;5093213;28;20091;-63
2023/10/05 01:26:34;;;;;;;17.20;7.70;;;;;;;9.87;71.72;97143.06;5093293;28;20105;-64
2023/10/05 01:29:02;;;;;;;16.73;6.85;;;;;;;9.89;71.79;97129.97;5093344;28;20447;-65
2023/10/05 01:31:29;;;;;;;12.50;7.28;;;;;;;9.77;72.54;97133.75;5093258;28;20382;-65
2023/10/05 01:33:58;;;;;;;12.38;7.32;;;;;;;9.75;72.79;97132.94;5093124;28;20490;-64
2023/10/05 01:36:26;;;;;;;16.20;7.15;;;;;;;9.73;72.89;97131.19;5093142;28;20044;-64
2023/10/05 01:38:56;;;;;;;16.25;7.53;;;;;;;9.74;72.77;97134.69;5093077;28;20044;-65
2023/10/05 01:41:27;;;;;;;14.63;7.03;;;;;;;9.70;72.77;97133.88;5093146;28;20047;-65
2023/10/05 01:43:55;;;;;;;11.55;7.38;;;;;;;9.73;72.85;97131.19;5092931;28;20052;-65
2023/10/05 01:46:23;;;;;;;13.18;6.85;;;;;;;9.71;72.89;97125.19;5093088;28;20071;-64
2023/10/05 01:48:51;;;;;;;20.50;7.88;;;;;;;9.68;73.12;97127.00;5093292;28;20048;-63
2023/10/05 01:51:23;;;;;;;13.50;7.78;;;;;;;9.65;73.27;97130.56;5093066;28;20040;-64
2023/10/05 01:53:55;;;;;;;12.38;7.30;;;;;;;9.65;73.27;97133.16;5092959;28;20123;-63
2023/10/05 01:56:24;;;;;;;12.27;8.05;;;;;;;9.68;73.71;97127.88;5093032;28;20513;-65
2023/10/05 01:58:52;;;;;;;16.25;7.88;;;;;;;9.66;73.40;97134.03;5093136;28;20052;-65
2023/10/05 02:01:22;;;;;;;14.98;7.70;;;;;;;9.61;73.88;97136.75;5092847;28;20055;-66
2023/10/05 02:03:53;;;;;;;23.52;9.18;;;;;;;9.61;73.65;97131.53;5092677;28;20052;-63
2023/10/05 02:06:28;;;;;;;20.20;8.10;;;;;;;9.55;74.01;97127.31;5092878;28;20055;-66
2023/10/05 02:08:54;;;;;;;18.48;7.93;;;;;;;9.50;74.44;97130.91;5092983;28;20044;-66
2023/10/05 02:11:24;;;;;;;15.77;7.20;;;;;;;9.54;74.76;97130.81;5092884;28;20048;-63
2023/10/05 02:13:53;;;;;;;11.90;7.97;;;;;;;9.55;74.49;97131.69;5093589;28;20077;-65
2023/10/05 02:16:20;;;;;;;13.88;7.85;;;;;;;9.54;74.35;97132.59;5096702;28;20494;-65
2023/10/05 02:18:48;;;;;;;15.70;8.32;;;;;;;9.56;74.58;97134.25;5096713;28;20127;-65
2023/10/05 02:21:30;;;;;;;15.43;7.68;;;;;;;9.47;74.82;97142.31;5096595;28;20048;-63
2023/10/05 02:24:10;;;;;;;14.23;7.70;;;;;;;9.49;75.02;97140.53;5096525;28;20055;-64
2023/10/05 02:26:37;;;;;;;18.50;8.23;;;;;;;9.48;75.25;97139.66;5096554;28;20101;-63
2023/10/05 02:29:13;;;;;;;14.75;7.82;;;;;;;9.47;75.36;97147.53;5096478;28;20485;-64
2023/10/05 02:31:50;;;;;;;12.23;7.70;;;;;;;9.44;75.48;97139.75;5096456;28;20134;-65
2023/10/05 02:34:19;;;;;;;14.27;7.00;;;;;;;9.44;75.65;97132.78;5096330;28;20048;-63
2023/10/05 02:36:47;;;;;;;22.88;8.85;;;;;;;9.44;76.17;97137.16;5096340;28;20059;-65
2023/10/05 02:39:14;;;;;;;19.67;7.95;;;;;;;9.45;77.29;97147.56;5096246;28;20078;-66
2023/10/05 02:41:43;;;;;;;15.35;9.07;;;;;;;9.48;77.77;97149.22;5096544;28;20504;-65
2023/10/05 02:44:19;;;;;;;16.65;8.38;;;;;;;9.58;78.38;97158.56;5096182;28;20055;-63
2023/10/05 02:46:47;;;;;;;15.70;8.38;;;;;;;9.65;78.03;97150.59;5096118;28;20409;-66
2023/10/05 02:49:15;;;;;;;14.68;8.70;;;;;;;9.67;78.02;97157.50;5096134;28;20122;-64
2023/10/05 02:51:43;;;;;;;14.43;9.02;;;;;;;9.77;78.04;97152.03;5096036;28;20055;-63
2023/10/05 02:54:12;;;;;;;13.10;8.10;;;;;;;9.82;78.15;97153.63;5095879;28;20481;-64
2023/10/05 02:56:41;;;;;;;18.35;9.45;;;;;;;9.88;78.30;97146.53;5095867;28;20079;-62
2023/10/05 02:59:10;;;;;;;18.20;8.57;;;;;;;9.93;78.33;97150.75;5095750;28;20481;-65
2023/10/05 03:01:39;;;;;;;18.52;10.50;;;;;;;9.90;78.72;97155.22;5095831;28;20105;-63
2023/10/05 03:04:16;;;;;;;15.70;9.13;;;;;;;9.96;78.94;97153.28;5095534;28;20040;-62
2023/10/05 03:06:47;;;;;;;13.65;9.02;;;;;;;10.07;78.40;97160.84;5095732;28;20105;-64
2023/10/05 03:09:14;;;;;;;19.83;8.57;;;;;;;10.07;78.04;97160.84;5095669;28;20063;-63
2023/10/05 03:11:46;;;;;;;15.40;9.38;;;;;;;10.08;78.90;97165.19;5095611;28;20128;-65
2023/10/05 03:14:16;;;;;;;14.15;8.00;;;;;;;10.09;78.44;97163.44;5095545;28;20054;-64
2023/10/05 03:16:47;;;;;;;11.20;7.27;;;;;;;10.06;79.23;97163.50;5095549;28;20048;-64
2023/10/05 03:19:20;;;;;;;16.00;9.30;;;;;;;10.08;79.38;97159.09;5095477;28;20138;-64
2023/10/05 03:21:49;;;;;;;15.45;9.50;;;;;;;10.10;79.62;97154.69;5095472;28;20079;-62
2023/10/05 03:24:17;;;;;;;14.88;9.05;;;;;;;10.05;79.53;97160.03;5095364;28;20383;-66
2023/10/05 03:26:47;;;;;;;16.20;9.25;;;;;;;10.09;79.65;97163.44;5094567;28;20082;-65
2023/10/05 03:29:14;;;;;;;14.02;9.65;;;;;;;10.17;79.77;97158.84;5095192;28;20123;-65
2023/10/05 03:31:53;;;;;;;16.52;9.23;;;;;;;10.19;80.14;97157.06;5095117;28;20478;-66
2023/10/05 03:34:25;;;;;;;17.90;9.45;;;;;;;10.18;80.47;97149.25;5095283;28;20052;-63
2023/10/05 03:36:53;;;;;;;17.80;9.65;;;;;;;10.21;79.95;97160.47;5095092;28;20052;-63
2023/10/05 03:39:23;;;;;;;17.05;9.48;;;;;;;10.17;79.30;97151.00;5095144;28;20048;-64
2023/10/05 03:41:50;;;;;;;18.88;9.02;;;;;;;10.21;79.17;97155.25;5095220;28;20044;-63
2023/10/05 03:44:17;;;;;;;14.85;9.45;;;;;;;10.23;79.17;97148.22;5094908;28;20067;-64
2023/10/05 03:46:46;;;;;;;16.73;9.07;;;;;;;10.25;79.87;97153.41;5094927;28;20123;-64
2023/10/05 03:49:15;;;;;;;12.90;8.60;;;;;;;10.24;80.14;97156.94;5094827;28;20482;-63
2023/10/05 03:51:49;;;;;;;14.32;9.10;;;;;;;10.28;79.27;97157.69;5094828;28;20076;-63
2023/10/05 03:54:17;;;;;;;17.77;9.55;;;;;;;10.30;80.42;97154.13;5094766;28;20134;-62
2023/10/05 03:56:45;;;;;;;23.75;10.25;;;;;;;10.30;80.72;97155.91;5094694;28;20404;-62
2023/10/05 03:59:12;;;;;;;16.23;9.02;;;;;;;10.29;80.31;97157.66;5094678;28;20093;-65
2023/10/05 04:01:39;;;;;;;20.92;10.55;;;;;;;10.23;80.05;97149.97;5094664;28;20093;-64
2023/10/05 04:04:08;;;;;;;14.65;8.95;;;;;;;10.21;80.11;97157.03;5094365;28;20136;-65
2023/10/05 04:06:36;;;;;;;15.00;9.05;;;;;;;10.22;80.55;97159.59;5094609;28;20084;-64
2023/10/05 04:09:08;;;;;;;14.73;9.48;;;;;;;10.20;80.75;97158.78;5094505;28;20511;-63
2023/10/05 04:11:35;;;;;;;17.75;10.05;;;;;;;10.20;81.44;97158.78;5094538;28;20476;-65
2023/10/05 04:14:03;;;;;;;18.77;9.85;;;;;;;10.24;81.51;97164.78;5094389;28;20048;-65
2023/10/05 04:16:33;;;;;;;20.48;13.48;;;;;;;10.33;80.80;97166.28;5094377;28;20090;-61
2023/10/05 04:19:04;;;;;;;22.33;12.57;;;;;;;10.34;80.93;97174.09;5094594;28;20055;-64
2023/10/05 04:21:32;;;;;;;18.75;10.60;;;;;;;10.35;82.35;97178.44;5094527;28;20281;-62
2023/10/05 04:23:59;;;;;;;23.67;11.52;;;;;;;10.42;82.23;97176.47;5094170;28;20052;-64
2023/10/05 04:26:32;;;;;;;20.50;10.30;;;;;;;10.44;81.59;97181.66;5094156;28;20474;-65
2023/10/05 04:29:04;;;;;;;20.23;11.05;;;;;;;10.52;81.86;97178.88;5094124;28;20052;-66
2023/10/05 04:31:32;;;;;;;15.85;9.38;;;;;;;10.59;82.58;97175.19;5094268;28;20051;-62
2023/10/05 04:34:04;;;;;;;18.80;10.30;;;;;;;10.71;81.94;97177.47;5093987;28;20050;-66
2023/10/05 04:36:31;;;;;;;24.65;11.55;;;;;;;10.81;81.43;97174.59;5093917;28;20044;-61
2023/10/05 04:39:00;;;;;;;24.30;13.40;;;;;;;10.94;80.61;97175.09;5093849;28;20048;-65
2023/10/05 04:41:33;;;;;;;17.67;9.60;;;;;;;11.01;80.50;97173.16;5093943;28;20059;-64
2023/10/05 04:44:01;;;;;;;15.45;8.93;;;;;;;11.07;80.59;97183.44;5093686;28;20088;-62
2023/10/05 04:46:30;;;;;;;17.33;8.70;;;;;;;11.17;80.64;97174.41;5093762;28;20596;-64
2023/10/05 04:49:07;;;;;;;13.85;8.70;;;;;;;11.30;80.56;97176.66;5093774;28;20040;-63
2023/10/05 04:51:38;;;;;;;22.20;9.52;;;;;;;11.35;80.49;97175.59;5093691;28;20144;-66
2023/10/05 04:54:06;;;;;;;20.13;9.73;;;;;;;11.48;79.72;97185.72;5093674;28;20044;-66
2023/10/05 04:56:43;;;;;;;15.25;8.15;;;;;;;11.61;78.06;97184.41;5093657;28;20055;-63
2023/10/05 04:59:36;;;;;;;19.42;8.25;;;;;;;11.77;77.59;97183.06;5093551;28;20490;-65
2023/10/05 05:02:14;;;;;;;18.77;8.57;;;;;;;11.93;77.39;97183.41;5093308;28;20051;-63
2023/10/05 05:05:05;;;;;;;16.77;8.70;;;;;;;12.07;77.48;97189.06;5093443;28;20497;-65
2023/10/05 05:07:36;;;;;;;14.18;8.05;;;;;;;12.30;77.50;97192.69;5093465;28;20044;-64
2023/10/05 05:10:06;;;;;;;13.95;8.18;;;;;;;12.66;77.03;97193.19;5093438;28;20101;-66
2023/10/05 05:12:35;;;;;;;13.55;8.00;;;;;;;12.84;75.88;97195.16;5093365;28;20040;-64
2023/10/05 05:15:05;;;;;;;18.00;8.90;;;;;;;13.02;75.44;97198.00;5093384;28;20051;-65
2023/10/05 05:17:33;;;;;;;16.83;8.57;;;;;;;13.12;75.41;97199.38;5093330;28;20044;-64
2023/10/05 05:20:11;;;;;;;19.52;8.20;;;;;;;13.20;75.03;97192.97;5093394;28;20080;-62
2023/10/05 05:22:38;;;;;;;18.63;9.05;;;;;;;13.31;74.78;97195.19;5093423;28;20051;-66
2023/10/05 05:25:09;;;;;;;20.83;8.80;;;;;;;13.39;74.73;97201.00;5093118;28;20478;-65
2023/10/05 05:27:38;;;;;;;18.13;9.03;;;;;;;13.48;74.64;97202.41;5093232;28;20048;-63
2023/10/05 05:30:23;;;;;;;14.32;8.23;;;;;;;13.63;74.67;97193.09;5093145;28;20048;-62
2023/10/05 05:32:53;;;;;;;14.23;8.77;;;;;;;13.82;74.01;97198.47;5093127;28;20050;-63
2023/10/05 05:35:21;;;;;;;23.17;9.23;;;;;;;14.02;74.38;97200.28;5093125;28;20150;-63
2023/10/05 05:37:48;;;;;;;14.32;8.23;;;;;;;14.25;74.15;97201.09;5093362;28;20097;-64
2023/10/05 05:40:15;;;;;;;13.75;7.88;;;;;;;14.54;73.72;97203.38;5093184;28;20056;-63
2023/10/05 05:42:45;;;;;;;16.10;8.65;;;;;;;14.75;73.44;97209.50;5093218;28;20426;-63
2023/10/05 05:45:16;;;;;;;14.80;8.40;;;;;;;14.97;72.91;97210.34;5093144;28;20056;-66
2023/10/05 05:47:43;;;;;;;13.32;7.68;;;;;;;15.27;72.38;97204.59;5093108;28;20075;-63
2023/10/05 05:50:17;;;;;;;14.73;8.35;;;;;;;16.27;69.28;97210.41;5096166;28;20113;-64
2023/10/05 05:52:46;;;;;;;10.90;7.28;;;;;;;17.46;60.15;97218.31;5097135;28;20048;-63
2023/10/05 05:55:15;;;;;;;15.85;7.93;;;;;;;18.20;58.27;97223.06;5097098;28;20048;-65
2023/10/05 05:57:43;;;;;;;14.07;7.32;;;;;;;18.83;57.17;97225.56;5096984;28;20398;-63
2023/10/05 06:00:17;;;;;;;13.32;7.60;;;;;;;19.25;54.26;97238.94;5097196;28;20048;-64
2023/10/05 06:02:46;;;;;;;15.32;7.78;;;;;;;19.43;52.75;97239.59;5096766;28;20052;-63
2023/10/05 06:05:14;;;;;;;15.57;8.15;;;;;;;19.70;56.07;97238.78;5096852;28;20481;-65
2023/10/05 06:07:44;;;;;;;13.93;7.82;;;;;;;20.12;57.00;97242.34;5097026;28;20481;-66
2023/10/05 06:10:14;;;;;;;9.88;6.70;;;;;;;20.23;56.98;97239.00;5096808;28;20051;-64
2023/10/05 06:12:43;;;;;;;15.60;7.28;;;;;;;20.13;54.38;97252.03;5096859;28;20486;-63
2023/10/05 06:15:13;;;;;;;18.13;7.00;;;;;;;19.96;53.91;97248.66;5096786;28;20044;-66
2023/10/05 06:17:40;;;;;;;13.48;7.60;;;;;;;19.83;54.38;97256.53;5096791;28;20400;-64
2023/10/05 06:20:13;;;;;;;12.07;7.30;;;;;;;19.99;55.52;97252.91;5096576;28;20048;-64
2023/10/05 06:22:43;;;;;;;13.25;7.53;;;;;;;20.23;56.41;97255.78;5096606;28;20143;-66
2023/10/05 06:25:10;;;;;;;16.05;8.57;;;;;;;20.31;56.60;97258.78;5096579;28;20048;-63
2023/10/05 06:27:38;;;;;;;15.75;8.10;;;;;;;20.41;56.73;97255.53;5096588;28;20378;-64
2023/10/05 06:30:10;;;;;;;12.05;7.65;;;;;;;20.68;55.05;97267.91;5096471;28;20043;-64
2023/10/05 06:32:37;;;;;;;12.77;7.78;;;;;;;21.29;50.60;97269.09;5096359;28;20375;-65
2023/10/05 06:35:09;;;;;;;17.10;7.28;;;;;;;22.25;48.26;97276.53;5096287;28;20056;-64
2023/10/05 06:37:38;;;;;;;12.45;7.32;;;;;;;23.08;45.47;97273.88;5096480;28;20063;-64
2023/10/05 06:40:12;;;;;;;18.70;7.95;;;;;;;23.92;42.89;97275.31;5096131;28;20051;-62
2023/10/05 06:42:41;;;;;;;16.95;8.05;;;;;;;24.82;41.05;97275.13;5096519;28;20162;-62
2023/10/05 06:45:13;;;;;;;16.45;7.28;;;;;;;25.46;38.32;97285.75;5096197;28;20102;-66
2023/10/05 06:47:40;;;;;;;18.75;7.35;;;;;;;25.96;39.49;97278.78;5096204;28;20044;-61
2023/10/05 06:50:09;;;;;;;11.45;6.82;;;;;;;25.64;37.17;97273.63;5096173;28;20051;-63
2023/10/05 06:52:42;;;;;;;18.52;7.78;;;;;;;25.56;37.26;97264.41;5096132;28;20048;-62
2023/10/05 06:55:12;;;;;;;13.70;7.75;;;;;;;25.62;36.92;97276.41;5096056;28;20132;-63
2023/10/05 06:57:39;;;;;;;13.90;8.07;;;;;;;25.40;36.50;97278.25;5095879;28;20044;-65
2023/10/05 07:00:16;;;;;;;15.60;7.47;;;;;;;25.32;37.23;97275.41;5095012;28;20044;-65
2023/10/05 07:02:45;;;;;;;11.57;7.10;;;;;;;25.55;38.21;97276.06;5095376;28;20056;-63
2023/10/05 07:05:13;;;;;;;14.10;8.32;;;;;;;25.47;36.89;97281.28;5095634;28;20135;-64
2023/10/05 07:07:41;;;;;;;13.50;6.85;;;;;;;25.36;37.50;97276.84;5095895;28;20455;-63
2023/10/05 07:10:10;;;;;;;11.18;6.82;;;;;;;25.41;38.21;97284.47;5095905;28;20056;-63
2023/10/05 07:12:41;;;;;;;17.80;7.20;;;;;;;25.42;36.64;97286.16;5095585;28;20075;-65
2023/10/05 07:15:09;;;;;;;11.27;7.20;;;;;;;25.48;36.97;97288.31;5095551;28;20448;-61
2023/10/05 07:17:37;;;;;;;13.10;7.80;;;;;;;25.53;35.81;97285.22;5095586;28;20079;-65
2023/10/05 07:20:11;;;;;;;16.15;7.13;;;;;;;25.78;36.10;97291.13;5095541;28;20052;-60
2023/10/05 07:22:40;;;;;;;13.05;7.30;;;;;;;25.91;35.29;97290.88;5095731;28;20044;-65
2023/10/05 07:25:09;;;;;;;23.23;7.88;;;;;;;25.99;35.94;97283.00;5095294;28;20040;-62
2023/10/05 07:27:36;;;;;;;14.60;7.43;;;;;;;26.00;35.09;97287.34;5095355;28;20076;-64
2023/10/05 07:30:04;;;;;;;13.77;7.40;;;;;;;25.90;34.55;97283.81;5095303;28;20040;-64
2023/10/05 07:32:32;;;;;;;16.50;6.95;;;;;;;25.72;35.01;97285.34;5095197;28;20082;-64
2023/10/05 07:34:59;;;;;;;14.23;7.78;;;;;;;25.48;34.86;97281.13;5095141;28;20048;-61
2023/10/05 07:37:29;;;;;;;15.15;8.00;;;;;;;25.46;35.52;97277.72;5095211;28;20071;-64
2023/10/05 07:39:56;;;;;;;16.92;7.43;;;;;;;25.61;35.51;97280.06;5095288;28;20148;-62
2023/10/05 07:42:23;;;;;;;15.57;7.22;;;;;;;25.73;34.28;97286.16;5095169;28;20084;-64
2023/10/05 07:44:51;;;;;;;14.70;7.05;;;;;;;25.54;34.95;97282.41;5094963;28;20048;-61
2023/10/05 07:47:19;;;;;;;18.35;7.25;;;;;;;25.42;34.88;97288.84;5095012;28;20433;-60
2023/10/05 07:49:46;;;;;;;16.30;7.25;;;;;;;25.67;34.41;97281.38;5095013;28;20059;-64
2023/10/05 07:52:14;;;;;;;14.40;7.35;;;;;;;25.61;32.71;97288.09;5094954;28;20101;-64
2023/10/05 07:54:43;;;;;;;10.40;6.72;;;;;;;25.53;32.69;97280.72;5094819;28;20048;-64
2023/10/05 07:57:13;;;;;;;13.70;6.78;;;;;;;25.66;33.35;97285.03;5094785;28;20482;-63
2023/10/05 07:59:42;;;;;;;15.15;5.95;;;;;;;25.96;32.16;97277.91;5094787;28;20055;-63
2023/10/05 08:02:10;;;;;;;14.43;6.43;;;;;;;26.20;31.81;97279.34;5094421;28;20094;-64
2023/10/05 08:04:38;;;;;;;17.45;7.18;;;;;;;26.40;31.24;97276.72;5094608;28;20048;-62
2023/10/05 08:07:05;;;;;;;16.17;6.60;;;;;;;26.42;32.60;97282.78;5094483;28;20075;-61
2023/10/05 08:09:34;;;;;;;17.25;7.25;;;;;;;26.21;31.93;97281.91;5094556;28;20391;-62
2023/10/05 08:12:03;;;;;;;13.77;7.05;;;;;;;26.24;31.93;97280.75;5094248;28;20048;-61
2023/10/05 08:14:30;;;;;;;17.88;7.38;;;;;;;26.27;32.75;97276.97;5094481;28;20044;-61
2023/10/05 08:16:58;;;;;;;10.02;6.90;;;;;;;26.36;32.30;97271.63;5094411;28;20079;-64
2023/10/05 08:19:26;;;;;;;18.45;7.40;;;;;;;26.57;31.92;97285.88;5094391;28;20048;-62
2023/10/05 08:21:53;;;;;;;12.98;7.22;;;;;;;26.52;32.07;97282.78;5094314;28;20040;-64
2023/10/05 08:24:21;;;;;;;18.15;7.30;;;;;;;26.21;32.54;97273.00;5094450;28;20052;-65
2023/10/05 08:26:49;;;;;;;15.38;6.95;;;;;;;26.19;32.96;97272.31;5094245;28;20554;-62
2023/10/05 08:29:22;;;;;;;15.63;7.22;;;;;;;25.95;32.58;97282.41;5094077;28;20501;-64
2023/10/05 08:31:49;;;;;;;21.25;7.90;;;;;;;25.75;31.78;97281.53;5094175;28;20040;-63
2023/10/05 08:34:20;;;;;;;14.82;7.60;;;;;;;25.70;31.64;97276.56;5094067;28;20052;-63
2023/10/05 08:36:49;;;;;;;;;;;;;;;25.75;32.38;97278.84;5094516;28;20055;-64
2023/10/05 08:39:22;;;;;;;15.95;6.95;;;;;;;25.44;32.01;97271.69;5094068;28;20372;-63
2023/10/05 08:41:49;;;;;;;16.95;7.28;;;;;;;25.16;32.08;97274.06;5094131;28;20044;-62
2023/10/05 08:44:26;;;;;;;21.10;6.80;;;;;;;25.13;32.42;97276.19;5093908;28;20052;-64
2023/10/05 08:46:55;;;;;;;22.67;8.40;;;;;;;25.15;32.38;97274.19;5093814;28;20048;-61
2023/10/05 08:49:24;;;;;;;20.17;7.32;;;;;;;24.82;33.06;97269.78;5093983;28;20114;-61
2023/10/05 08:51:53;;;;;;;14.43;6.80;;;;;;;24.77;33.32;97271.16;5093885;28;20047;-64
2023/10/05 08:54:27;;;;;;;18.33;7.40;;;;;;;24.86;32.98;97271.19;5094054;28;20052;-61
2023/10/05 08:56:57;;;;;;;17.27;6.70;;;;;;;24.45;33.62;97278.22;5093658;28;20078;-61
2023/10/05 08:59:27;;;;;;;20.25;7.03;;;;;;;24.19;33.45;97276.75;5093642;28;20055;-64
2023/10/05 09:01:59;;;;;;;15.18;7.60;;;;;;;24.04;33.52;97280.63;5093766;28;20044;-62
2023/10/05 09:04:43;;;;;;;18.38;6.55;;;;;;;24.02;34.63;97274.59;5093642;28;20055;-67
2023/10/05 09:07:27;;;;;;;21.13;6.85;;;;;;;24.16;33.79;97274.31;5093515;28;20447;-62
2023/10/05 09:09:55;;;;;;;21.42;7.10;;;;;;;24.04;34.20;97278.81;5093516;28;20044;-64
2023/10/05 09:12:33;;;;;;;17.73;6.30;;;;;;;24.09;34.35;97291.81;5093462;28;20048;-61
2023/10/05 09:15:14;;;;;;;19.95;6.85;;;;;;;24.00;34.48;97277.38;5093368;28;20040;-62
2023/10/05 09:17:58;;;;;;;19.17;6.78;;;;;;;24.25;35.26;97275.38;5093416;28;20044;-62
2023/10/05 09:20:30;;;;;;;18.77;7.40;;;;;;;24.10;34.04;97281.00;5093405;28;20371;-61
2023/10/05 09:23:00;;;;;;;18.17;7.85;;;;;;;24.09;34.83;97283.78;5093200;28;20127;-64
2023/10/05 09:25:34;;;;;;;12.87;7.17;;;;;;;24.19;34.31;97281.22;5093175;28;20464;-63
2023/10/05 09:28:13;;;;;;;16.95;7.10;;;;;;;24.48;34.45;97283.31;5093357;28;20048;-61
2023/10/05 09:30:55;;;;;;;21.02;8.25;;;;;;;24.44;34.37;97272.03;5093255;28;20048;-63
2023/10/05 09:33:25;;;;;;;21.67;7.35;;;;;;;24.60;34.15;97286.78;5093299;28;20043;-65
2023/10/05 09:35:55;;;;;;;25.92;8.90;;;;;;;24.73;33.95;97274.09;5093265;28;20047;-63
2023/10/05 09:38:23;;;;;;;18.77;7.95;;;;;;;24.60;34.44;97289.47;5093205;28;20047;-64
2023/10/05 09:40:53;;;;;;;16.38;6.93;;;;;;;24.35;34.59;97279.00;5093128;28;20084;-61
2023/10/05 09:43:21;;;;;;;;;;;;;;;24.44;34.04;97279.22;5093525;28;20483;-63
2023/10/05 09:45:53;;;;;;;11.88;7.30;;;;;;;24.23;34.13;97277.34;5092971;28;19966;-64
2023/10/05 09:48:21;;;;;;;23.75;8.40;;;;;;;24.27;34.65;97272.59;5092968;28;20505;-62
2023/10/05 09:50:49;;;;;;;22.10;6.68;;;;;;;24.30;34.56;97281.22;5093011;28;20044;-62
2023/10/05 09:53:19;;;;;;;15.35;6.97;;;;;;;24.20;34.35;97264.25;5093042;28;20052;-64
2023/10/05 09:55:53;;;;;;;19.10;7.55;;;;;;;24.23;35.05;97264.81;5093233;28;20512;-62
2023/10/05 09:58:20;;;;;;;19.52;7.57;;;;;;;24.26;34.91;97265.56;5093025;28;20047;-62
2023/10/05 10:00:55;;;;;;;18.73;8.73;;;;;;;24.40;34.47;97246.53;5092911;28;20564;-64
2023/10/05 10:03:24;;;;;;;43.30;8.05;;;;;;;24.65;35.22;97251.63;5092644;28;20060;-64
2023/10/05 10:05:59;;;;;;;20.27;7.25;;;;;;;24.60;34.08;97244.00;5092731;28;20127;-60
2023/10/05 10:08:29;;;;;;;19.13;7.53;;;;;;;24.61;34.66;97238.53;5092902;28;20044;-63
2023/10/05 10:11:06;;;;;;;14.45;7.25;;;;;;;24.54;34.39;97237.34;5092904;28;20071;-61
2023/10/05 10:13:37;;;;;;;15.90;6.88;;;;;;;24.69;34.53;97239.69;5092777;28;20040;-63
2023/10/05 10:16:21;;;;;;;22.75;7.60;;;;;;;24.41;34.40;97237.53;5092796;28;20143;-63
2023/10/05 10:18:53;;;;;;;26.55;7.53;;;;;;;24.01;35.19;97230.13;5092775;28;20127;-61
2023/10/05 10:21:26;;;;;;;24.08;7.70;;;;;;;23.93;35.40;97225.44;5092669;28;20060;-65
2023/10/05 10:24:03;;;;;;;16.95;6.93;;;;;;;24.08;36.06;97226.81;5092755;28;20559;-63
2023/10/05 10:26:31;;;;;;;18.52;7.45;;;;;;;24.21;36.36;97224.03;5092928;28;20091;-62
2023/10/05 10:28:59;;;;;;;13.20;7.40;;;;;;;24.38;35.75;97215.56;5092716;28;20443;-61
2023/10/05 10:31:38;;;;;;;21.90;7.05;;;;;;;24.52;35.45;97209.03;5092715;28;20047;-61
2023/10/05 10:34:18;;;;;;;14.35;7.63;;;;;;;24.69;35.52;97212.97;5092822;28;20083;-65
2023/10/05 10:36:53;;;;;;;24.77;7.05;;;;;;;24.86;34.92;97198.13;5096355;28;20454;-62
2023/10/05 10:39:24;;;;;;;20.73;7.38;;;;;;;24.79;34.25;97202.31;5096306;28;20084;-63
2023/10/05 10:42:07;;;;;;;15.68;7.05;;;;;;;24.93;35.28;97196.66;5096313;28;20044;-64
2023/10/05 10:47:20;;;;;;;14.60;7.10;;;;;;;25.31;34.45;97204.97;5093406;28;20052;-64
2023/10/05 10:50:10;;;;;;;18.70;7.35;;;;;;;25.07;33.24;97199.97;5096045;28;20059;-63
2023/10/05 10:52:38;;;;;;;19.73;7.85;;;;;;;24.77;34.17;97190.91;5096423;28;20052;-62
2023/10/05 10:55:09;;;;;;;17.85;7.32;;;;;;;24.76;34.17;97181.16;5096288;28;20044;-65
2023/10/05 10:57:36;;;;;;;;;;;;;;;24.71;34.25;97177.06;5096560;28;20551;-63
2023/10/05 11:02:45;;;;;;;26.77;7.78;;;;;;;24.73;34.92;97166.25;5095573;28;20093;-64
2023/10/05 11:05:16;;;;;;;19.70;7.82;;;;;;;24.78;35.03;97171.19;5095838;28;20047;-61
2023/10/05 11:07:43;;;;;;;19.73;6.75;;;;;;;24.80;33.95;97171.94;5095674;28;20101;-62
2023/10/05 11:10:18;;;;;;;23.50;7.75;;;;;;;24.74;34.54;97163.44;5095786;28;20058;-64
2023/10/05 11:12:53;;;;;;;26.17;7.78;;;;;;;24.50;34.38;97165.56;5095725;28;20079;-64
2023/10/05 11:15:28;;;;;;;17.00;6.25;;;;;;;24.22;34.70;97168.75;5095902;28;20040;-62
2023/10/05 11:17:59;;;;;;;17.95;7.22;;;;;;;24.04;35.00;97160.41;5095537;28;20044;-65
2023/10/05 11:20:33;;;;;;;17.15;7.85;;;;;;;23.92;35.09;97168.47;5095539;28;20391;-63
2023/10/05 11:23:03;;;;;;;22.50;7.00;;;;;;;23.90;35.25;97162.41;5095559;28;20086;-65
2023/10/05 11:25:35;;;;;;;15.68;7.15;;;;;;;24.03;35.97;97150.72;5095513;28;20080;-64
2023/10/05 11:28:07;;;;;;;23.73;7.55;;;;;;;24.30;35.13;97155.59;5095535;28;20130;-64
2023/10/05 11:30:42;;;;;;;15.05;6.47;;;;;;;24.29;34.48;97158.41;5095297;28;20102;-64
2023/10/05 11:33:16;;;;;;;15.02;7.57;;;;;;;24.21;34.67;97151.88;5095355;28;20127;-61
2023/10/05 11:35:52;;;;;;;20.98;7.22;;;;;;;24.27;34.76;97144.31;5095374;28;20048;-60
2023/10/05 11:38:20;;;;;;;13.73;7.25;;;;;;;24.34;35.05;97151.69;5095119;28;20048;-63
2023/10/05 11:40:53;;;;;;;19.00;6.95;;;;;;;24.41;34.63;97141.28;5095061;28;20048;-60
2023/10/05 11:43:21;;;;;;;19.05;7.22;;;;;;;24.50;34.29;97136.16;5095055;28;20051;-60
2023/10/05 11:45:58;;;;;;;18.80;7.35;;;;;;;24.55;34.76;97149.94;5095023;28;20048;-60
2023/10/05 11:48:40;;;;;;;14.02;7.15;;;;;;;24.55;34.22;97139.25;5094558;28;20048;-62